sensor_id;sensor_type;location;lat;lon;timestamp;temperature;humidity
6538;DHT22;3302;52.508;13.454;2023-03-23T00:01:05;12.50;84.30
6538;DHT22;3302;52.508;13.454;2023-03-23T00:03:31;12.50;84.30
6538;DHT22;3302;52.508;13.454;2023-03-23T00:05:59;12.50;84.60
6538;DHT22;3302;52.508;13.454;2023-03-23T00:08:35;12.50;84.00
6538;DHT22;3302;52.508;13.454;2023-03-23T00:11:05;12.50;84.50
6538;DHT22;3302;52.508;13.454;2023-03-23T00:13:33;12.40;84.50
6538;DHT22;3302;52.508;13.454;2023-03-23T00:15:59;12.40;84.70
6538;DHT22;3302;52.508;13.454;2023-03-23T00:18:25;12.40;84.90
6538;DHT22;3302;52.508;13.454;2023-03-23T00:20:53;12.30;85.40
6538;DHT22;3302;52.508;13.454;2023-03-23T00:23:24;12.30;85.50
6538;DHT22;3302;52.508;13.454;2023-03-23T00:25:53;12.30;85.70
6538;DHT22;3302;52.508;13.454;2023-03-23T00:28:23;12.30;85.70
6538;DHT22;3302;52.508;13.454;2023-03-23T00:31:00;12.30;85.50
6538;DHT22;3302;52.508;13.454;2023-03-23T00:33:31;12.30;85.50
6538;DHT22;3302;52.508;13.454;2023-03-23T00:36:10;12.20;85.30
6538;DHT22;3302;52.508;13.454;2023-03-23T00:38:37;12.30;85.20
6538;DHT22;3302;52.508;13.454;2023-03-23T00:41:03;12.30;85.20
6538;DHT22;3302;52.508;13.454;2023-03-23T00:43:31;12.30;85.20
6538;DHT22;3302;52.508;13.454;2023-03-23T00:45:57;12.30;85.10
6538;DHT22;3302;52.508;13.454;2023-03-23T00:48:27;12.30;85.00
6538;DHT22;3302;52.508;13.454;2023-03-23T00:50:54;12.30;85.00
6538;DHT22;3302;52.508;13.454;2023-03-23T00:53:19;12.20;85.10
6538;DHT22;3302;52.508;13.454;2023-03-23T00:55:47;12.20;85.30
6538;DHT22;3302;52.508;13.454;2023-03-23T00:58:13;12.10;85.40
6538;DHT22;3302;52.508;13.454;2023-03-23T01:00:40;12.20;85.60
6538;DHT22;3302;52.508;13.454;2023-03-23T01:03:06;12.10;85.70
6538;DHT22;3302;52.508;13.454;2023-03-23T01:05:40;12.00;85.70
6538;DHT22;3302;52.508;13.454;2023-03-23T01:08:06;12.00;86.00
6538;DHT22;3302;52.508;13.454;2023-03-23T01:10:33;12.00;86.10
6538;DHT22;3302;52.508;13.454;2023-03-23T01:12:59;11.90;86.20
6538;DHT22;3302;52.508;13.454;2023-03-23T01:15:29;11.90;86.10
6538;DHT22;3302;52.508;13.454;2023-03-23T01:17:56;12.00;86.30
6538;DHT22;3302;52.508;13.454;2023-03-23T01:20:22;11.90;86.60
6538;DHT22;3302;52.508;13.454;2023-03-23T01:22:48;11.90;86.80
6538;DHT22;3302;52.508;13.454;2023-03-23T01:25:14;11.90;87.00
6538;DHT22;3302;52.508;13.454;2023-03-23T01:27:40;11.90;86.90
6538;DHT22;3302;52.508;13.454;2023-03-23T01:30:11;11.90;86.90
6538;DHT22;3302;52.508;13.454;2023-03-23T01:32:38;11.80;86.90
6538;DHT22;3302;52.508;13.454;2023-03-23T01:35:04;11.80;87.10
6538;DHT22;3302;52.508;13.454;2023-03-23T01:37:30;11.80;87.40
6538;DHT22;3302;52.508;13.454;2023-03-23T01:39:56;11.70;87.60
6538;DHT22;3302;52.508;13.454;2023-03-23T01:42:29;11.70;87.70
6538;DHT22;3302;52.508;13.454;2023-03-23T01:47:46;11.60;88.30
6538;DHT22;3302;52.508;13.454;2023-03-23T01:50:13;11.60;88.20
6538;DHT22;3302;52.508;13.454;2023-03-23T01:52:38;11.60;88.40
6538;DHT22;3302;52.508;13.454;2023-03-23T01:55:05;11.60;88.40
6538;DHT22;3302;52.508;13.454;2023-03-23T01:57:31;11.70;88.10
6538;DHT22;3302;52.508;13.454;2023-03-23T02:00:00;11.70;88.10
6538;DHT22;3302;52.508;13.454;2023-03-23T02:02:33;11.70;88.00
6538;DHT22;3302;52.508;13.454;2023-03-23T02:05:06;11.70;87.90
6538;DHT22;3302;52.508;13.454;2023-03-23T02:07:34;11.70;88.00
6538;DHT22;3302;52.508;13.454;2023-03-23T02:09:59;11.70;88.00
6538;DHT22;3302;52.508;13.454;2023-03-23T02:12:26;11.70;88.00
6538;DHT22;3302;52.508;13.454;2023-03-23T02:14:52;11.70;88.00
6538;DHT22;3302;52.508;13.454;2023-03-23T02:23:07;11.70;88.00
6538;DHT22;3302;52.508;13.454;2023-03-23T02:28:31;11.70;87.80
6538;DHT22;3302;52.508;13.454;2023-03-23T02:41:57;11.70;88.10
6538;DHT22;3302;52.508;13.454;2023-03-23T02:44:24;11.70;87.80
6538;DHT22;3302;52.508;13.454;2023-03-23T02:46:53;11.70;87.70
6538;DHT22;3302;52.508;13.454;2023-03-23T02:49:19;11.70;87.50
6538;DHT22;3302;52.508;13.454;2023-03-23T02:51:46;11.70;87.70
6538;DHT22;3302;52.508;13.454;2023-03-23T02:54:15;11.70;87.80
6538;DHT22;3302;52.508;13.454;2023-03-23T02:56:42;11.70;88.20
6538;DHT22;3302;52.508;13.454;2023-03-23T02:59:08;11.70;88.50
6538;DHT22;3302;52.508;13.454;2023-03-23T03:04:24;11.70;89.60
6538;DHT22;3302;52.508;13.454;2023-03-23T03:12:41;11.70;89.90
6538;DHT22;3302;52.508;13.454;2023-03-23T03:15:28;11.70;89.50
6538;DHT22;3302;52.508;13.454;2023-03-23T03:20:55;11.80;90.00
6538;DHT22;3302;52.508;13.454;2023-03-23T03:23:25;11.70;90.10
6538;DHT22;3302;52.508;13.454;2023-03-23T03:25:54;11.80;90.10
6538;DHT22;3302;52.508;13.454;2023-03-23T03:28:24;11.80;90.20
6538;DHT22;3302;52.508;13.454;2023-03-23T03:30:54;11.80;90.00
6538;DHT22;3302;52.508;13.454;2023-03-23T03:33:21;11.80;90.40
6538;DHT22;3302;52.508;13.454;2023-03-23T03:35:53;11.80;90.60
6538;DHT22;3302;52.508;13.454;2023-03-23T03:38:19;11.70;90.60
6538;DHT22;3302;52.508;13.454;2023-03-23T03:40:45;11.70;90.40
6538;DHT22;3302;52.508;13.454;2023-03-23T03:43:11;11.70;90.40
6538;DHT22;3302;52.508;13.454;2023-03-23T03:45:37;11.80;90.40
6538;DHT22;3302;52.508;13.454;2023-03-23T03:48:03;11.80;90.00
6538;DHT22;3302;52.508;13.454;2023-03-23T03:50:28;11.80;90.10
6538;DHT22;3302;52.508;13.454;2023-03-23T03:52:55;11.80;90.30
6538;DHT22;3302;52.508;13.454;2023-03-23T03:55:21;11.70;90.70
6538;DHT22;3302;52.508;13.454;2023-03-23T03:57:47;11.70;90.30
6538;DHT22;3302;52.508;13.454;2023-03-23T04:00:14;11.70;90.40
6538;DHT22;3302;52.508;13.454;2023-03-23T04:02:50;11.70;90.80
6538;DHT22;3302;52.508;13.454;2023-03-23T04:05:21;11.70;90.30
6538;DHT22;3302;52.508;13.454;2023-03-23T04:07:48;11.70;90.50
6538;DHT22;3302;52.508;13.454;2023-03-23T04:10:17;11.80;90.50
6538;DHT22;3302;52.508;13.454;2023-03-23T04:12:45;11.70;90.40
6538;DHT22;3302;52.508;13.454;2023-03-23T04:15:11;11.70;90.90
6538;DHT22;3302;52.508;13.454;2023-03-23T04:17:37;11.70;90.90
6538;DHT22;3302;52.508;13.454;2023-03-23T04:20:04;11.70;91.20
6538;DHT22;3302;52.508;13.454;2023-03-23T04:22:46;11.70;91.20
6538;DHT22;3302;52.508;13.454;2023-03-23T04:25:16;11.70;91.60
6538;DHT22;3302;52.508;13.454;2023-03-23T04:27:47;11.60;91.80
6538;DHT22;3302;52.508;13.454;2023-03-23T04:30:22;11.60;91.10
6538;DHT22;3302;52.508;13.454;2023-03-23T04:32:50;11.60;91.40
6538;DHT22;3302;52.508;13.454;2023-03-23T04:35:17;11.60;91.70
6538;DHT22;3302;52.508;13.454;2023-03-23T04:37:44;11.60;91.90
6538;DHT22;3302;52.508;13.454;2023-03-23T04:40:10;11.60;92.30
6538;DHT22;3302;52.508;13.454;2023-03-23T04:42:39;11.60;92.10
6538;DHT22;3302;52.508;13.454;2023-03-23T04:45:06;11.60;92.90
6538;DHT22;3302;52.508;13.454;2023-03-23T04:47:35;11.60;92.90
6538;DHT22;3302;52.508;13.454;2023-03-23T04:50:14;11.60;93.00
6538;DHT22;3302;52.508;13.454;2023-03-23T04:52:40;11.60;93.20
6538;DHT22;3302;52.508;13.454;2023-03-23T04:55:11;11.60;92.50
6538;DHT22;3302;52.508;13.454;2023-03-23T04:57:38;11.60;92.40
6538;DHT22;3302;52.508;13.454;2023-03-23T05:00:04;11.60;92.50
6538;DHT22;3302;52.508;13.454;2023-03-23T05:02:37;11.60;91.80
6538;DHT22;3302;52.508;13.454;2023-03-23T05:05:08;11.60;92.10
6538;DHT22;3302;52.508;13.454;2023-03-23T05:07:37;11.60;92.10
6538;DHT22;3302;52.508;13.454;2023-03-23T05:10:04;11.50;92.40
6538;DHT22;3302;52.508;13.454;2023-03-23T05:12:30;11.60;92.80
6538;DHT22;3302;52.508;13.454;2023-03-23T05:14:55;11.60;92.60
6538;DHT22;3302;52.508;13.454;2023-03-23T05:17:21;11.50;93.00
6538;DHT22;3302;52.508;13.454;2023-03-23T05:19:50;11.50;93.20
6538;DHT22;3302;52.508;13.454;2023-03-23T05:22:16;11.50;93.10
6538;DHT22;3302;52.508;13.454;2023-03-23T05:24:43;11.40;93.90
6538;DHT22;3302;52.508;13.454;2023-03-23T05:27:09;11.40;94.10
6538;DHT22;3302;52.508;13.454;2023-03-23T05:29:37;11.40;94.10
6538;DHT22;3302;52.508;13.454;2023-03-23T05:32:09;11.40;94.20
6538;DHT22;3302;52.508;13.454;2023-03-23T05:34:36;11.40;94.70
6538;DHT22;3302;52.508;13.454;2023-03-23T05:37:03;11.30;94.80
6538;DHT22;3302;52.508;13.454;2023-03-23T05:39:30;11.30;95.10
6538;DHT22;3302;52.508;13.454;2023-03-23T05:41:56;11.30;95.60
6538;DHT22;3302;52.508;13.454;2023-03-23T05:44:22;11.30;95.20
6538;DHT22;3302;52.508;13.454;2023-03-23T05:46:49;11.30;95.60
6538;DHT22;3302;52.508;13.454;2023-03-23T05:49:16;11.30;96.50
6538;DHT22;3302;52.508;13.454;2023-03-23T05:51:45;11.30;96.60
6538;DHT22;3302;52.508;13.454;2023-03-23T05:54:16;11.20;97.30
6538;DHT22;3302;52.508;13.454;2023-03-23T05:56:42;11.20;98.30
6538;DHT22;3302;52.508;13.454;2023-03-23T05:59:08;11.10;98.70
6538;DHT22;3302;52.508;13.454;2023-03-23T06:01:36;11.10;99.70
6538;DHT22;3302;52.508;13.454;2023-03-23T06:04:02;11.00;99.90
6538;DHT22;3302;52.508;13.454;2023-03-23T06:06:29;11.00;99.90
6538;DHT22;3302;52.508;13.454;2023-03-23T06:08:56;11.00;99.90
6538;DHT22;3302;52.508;13.454;2023-03-23T06:11:23;11.00;99.90
6538;DHT22;3302;52.508;13.454;2023-03-23T06:13:50;10.90;99.90
6538;DHT22;3302;52.508;13.454;2023-03-23T06:16:16;10.90;99.90
6538;DHT22;3302;52.508;13.454;2023-03-23T06:18:42;10.70;99.90
6538;DHT22;3302;52.508;13.454;2023-03-23T06:21:09;10.60;99.90
6538;DHT22;3302;52.508;13.454;2023-03-23T06:23:35;10.60;99.90
6538;DHT22;3302;52.508;13.454;2023-03-23T06:26:06;10.60;99.90
6538;DHT22;3302;52.508;13.454;2023-03-23T06:28:33;10.60;99.90
6538;DHT22;3302;52.508;13.454;2023-03-23T06:31:03;10.60;99.90
6538;DHT22;3302;52.508;13.454;2023-03-23T06:33:35;10.60;99.90
6538;DHT22;3302;52.508;13.454;2023-03-23T06:36:01;10.60;99.90
6538;DHT22;3302;52.508;13.454;2023-03-23T06:38:27;10.60;99.90
6538;DHT22;3302;52.508;13.454;2023-03-23T06:40:54;10.60;99.90
6538;DHT22;3302;52.508;13.454;2023-03-23T06:43:21;10.60;99.90
6538;DHT22;3302;52.508;13.454;2023-03-23T06:45:47;10.60;99.90
6538;DHT22;3302;52.508;13.454;2023-03-23T06:48:13;10.60;99.90
6538;DHT22;3302;52.508;13.454;2023-03-23T06:50:42;10.70;99.90
6538;DHT22;3302;52.508;13.454;2023-03-23T06:53:08;10.60;99.90
6538;DHT22;3302;52.508;13.454;2023-03-23T06:55:34;10.60;99.90
6538;DHT22;3302;52.508;13.454;2023-03-23T06:58:00;10.70;99.90
6538;DHT22;3302;52.508;13.454;2023-03-23T07:00:27;10.70;99.90
6538;DHT22;3302;52.508;13.454;2023-03-23T07:02:52;10.70;99.90
6538;DHT22;3302;52.508;13.454;2023-03-23T07:05:18;10.70;99.90
6538;DHT22;3302;52.508;13.454;2023-03-23T07:07:45;10.80;99.90
6538;DHT22;3302;52.508;13.454;2023-03-23T07:10:10;10.70;99.90
6538;DHT22;3302;52.508;13.454;2023-03-23T07:12:37;10.70;99.90
6538;DHT22;3302;52.508;13.454;2023-03-23T07:15:04;10.70;99.90
6538;DHT22;3302;52.508;13.454;2023-03-23T07:17:30;10.70;99.90
6538;DHT22;3302;52.508;13.454;2023-03-23T07:19:56;10.70;99.90
6538;DHT22;3302;52.508;13.454;2023-03-23T07:22:21;10.80;99.90
6538;DHT22;3302;52.508;13.454;2023-03-23T07:24:47;10.70;99.90
6538;DHT22;3302;52.508;13.454;2023-03-23T07:27:13;10.70;99.90
6538;DHT22;3302;52.508;13.454;2023-03-23T07:29:39;10.70;99.90
6538;DHT22;3302;52.508;13.454;2023-03-23T07:32:06;10.80;99.90
6538;DHT22;3302;52.508;13.454;2023-03-23T07:34:32;10.70;99.90
6538;DHT22;3302;52.508;13.454;2023-03-23T07:36:58;10.70;99.90
6538;DHT22;3302;52.508;13.454;2023-03-23T07:39:25;10.70;99.90
6538;DHT22;3302;52.508;13.454;2023-03-23T07:41:51;10.70;99.90
6538;DHT22;3302;52.508;13.454;2023-03-23T07:44:17;10.60;99.90
6538;DHT22;3302;52.508;13.454;2023-03-23T07:46:43;10.70;99.90
6538;DHT22;3302;52.508;13.454;2023-03-23T07:49:09;10.70;99.90
6538;DHT22;3302;52.508;13.454;2023-03-23T07:51:35;10.70;99.90
6538;DHT22;3302;52.508;13.454;2023-03-23T07:54:04;10.80;99.90
6538;DHT22;3302;52.508;13.454;2023-03-23T07:56:36;10.80;99.90
6538;DHT22;3302;52.508;13.454;2023-03-23T07:59:03;10.90;99.90
6538;DHT22;3302;52.508;13.454;2023-03-23T08:01:30;10.90;99.90
6538;DHT22;3302;52.508;13.454;2023-03-23T08:03:56;10.90;99.90
6538;DHT22;3302;52.508;13.454;2023-03-23T08:06:27;10.90;99.90
6538;DHT22;3302;52.508;13.454;2023-03-23T08:08:53;10.90;99.90
6538;DHT22;3302;52.508;13.454;2023-03-23T08:11:19;10.90;99.90
6538;DHT22;3302;52.508;13.454;2023-03-23T08:13:46;10.90;99.90
6538;DHT22;3302;52.508;13.454;2023-03-23T08:16:13;11.00;99.90
6538;DHT22;3302;52.508;13.454;2023-03-23T08:18:39;11.10;99.90
6538;DHT22;3302;52.508;13.454;2023-03-23T08:21:06;11.10;99.90
6538;DHT22;3302;52.508;13.454;2023-03-23T08:23:36;11.10;99.90
6538;DHT22;3302;52.508;13.454;2023-03-23T08:26:08;11.10;99.90
6538;DHT22;3302;52.508;13.454;2023-03-23T08:28:35;11.20;99.90
6538;DHT22;3302;52.508;13.454;2023-03-23T08:31:07;11.10;99.90
6538;DHT22;3302;52.508;13.454;2023-03-23T08:33:33;11.20;99.90
6538;DHT22;3302;52.508;13.454;2023-03-23T08:36:00;11.20;99.90
6538;DHT22;3302;52.508;13.454;2023-03-23T08:38:27;11.20;99.90
6538;DHT22;3302;52.508;13.454;2023-03-23T08:40:58;11.30;99.90
6538;DHT22;3302;52.508;13.454;2023-03-23T08:43:24;11.30;99.90
6538;DHT22;3302;52.508;13.454;2023-03-23T08:45:51;11.30;99.90
6538;DHT22;3302;52.508;13.454;2023-03-23T08:48:17;11.30;99.90
6538;DHT22;3302;52.508;13.454;2023-03-23T08:50:43;11.30;99.90
6538;DHT22;3302;52.508;13.454;2023-03-23T08:53:10;11.40;99.90
6538;DHT22;3302;52.508;13.454;2023-03-23T08:55:35;11.40;99.90
6538;DHT22;3302;52.508;13.454;2023-03-23T08:58:01;11.40;99.90
6538;DHT22;3302;52.508;13.454;2023-03-23T09:00:29;11.50;99.90
6538;DHT22;3302;52.508;13.454;2023-03-23T09:02:55;11.50;99.90
6538;DHT22;3302;52.508;13.454;2023-03-23T09:05:24;11.60;99.90
6538;DHT22;3302;52.508;13.454;2023-03-23T09:07:52;11.70;99.90
6538;DHT22;3302;52.508;13.454;2023-03-23T09:10:19;11.80;99.90
6538;DHT22;3302;52.508;13.454;2023-03-23T09:12:46;11.80;99.90
6538;DHT22;3302;52.508;13.454;2023-03-23T09:15:15;11.90;99.90
6538;DHT22;3302;52.508;13.454;2023-03-23T09:17:44;11.80;99.90
6538;DHT22;3302;52.508;13.454;2023-03-23T09:20:12;11.90;99.90
6538;DHT22;3302;52.508;13.454;2023-03-23T09:22:44;11.90;99.90
6538;DHT22;3302;52.508;13.454;2023-03-23T09:25:13;11.90;99.90
6538;DHT22;3302;52.508;13.454;2023-03-23T09:27:41;12.00;99.90
6538;DHT22;3302;52.508;13.454;2023-03-23T09:30:09;12.00;99.90
6538;DHT22;3302;52.508;13.454;2023-03-23T09:32:37;12.00;99.90
6538;DHT22;3302;52.508;13.454;2023-03-23T09:35:05;12.10;99.90
6538;DHT22;3302;52.508;13.454;2023-03-23T09:37:34;12.10;99.90
6538;DHT22;3302;52.508;13.454;2023-03-23T09:40:02;12.20;99.90
6538;DHT22;3302;52.508;13.454;2023-03-23T09:42:39;12.20;99.90
6538;DHT22;3302;52.508;13.454;2023-03-23T09:48:22;12.40;99.90
6538;DHT22;3302;52.508;13.454;2023-03-23T09:50:57;12.50;99.90
6538;DHT22;3302;52.508;13.454;2023-03-23T09:53:46;12.60;99.90
6538;DHT22;3302;52.508;13.454;2023-03-23T09:56:15;12.70;99.90
6538;DHT22;3302;52.508;13.454;2023-03-23T10:01:43;12.80;99.90
6538;DHT22;3302;52.508;13.454;2023-03-23T10:06:51;12.90;99.90
6538;DHT22;3302;52.508;13.454;2023-03-23T10:09:19;13.00;99.90
6538;DHT22;3302;52.508;13.454;2023-03-23T10:20:03;13.00;99.90
6538;DHT22;3302;52.508;13.454;2023-03-23T10:25:43;13.10;99.90
6538;DHT22;3302;52.508;13.454;2023-03-23T10:28:17;13.10;99.50
6538;DHT22;3302;52.508;13.454;2023-03-23T10:30:57;13.20;99.30
6538;DHT22;3302;52.508;13.454;2023-03-23T10:36:10;13.30;98.70
6538;DHT22;3302;52.508;13.454;2023-03-23T10:39:38;13.30;98.40
6538;DHT22;3302;52.508;13.454;2023-03-23T10:41:35;13.40;98.60
6538;DHT22;3302;52.508;13.454;2023-03-23T10:44:04;13.50;98.40
6538;DHT22;3302;52.508;13.454;2023-03-23T10:47:09;13.50;97.90
6538;DHT22;3302;52.508;13.454;2023-03-23T10:49:42;13.50;97.60
6538;DHT22;3302;52.508;13.454;2023-03-23T10:52:35;13.50;97.50
6538;DHT22;3302;52.508;13.454;2023-03-23T10:55:17;13.50;97.60
6538;DHT22;3302;52.508;13.454;2023-03-23T10:58:00;13.60;97.50
6538;DHT22;3302;52.508;13.454;2023-03-23T11:00:28;13.60;97.40
6538;DHT22;3302;52.508;13.454;2023-03-23T11:05:42;13.70;96.60
6538;DHT22;3302;52.508;13.454;2023-03-23T11:08:25;13.60;96.20
6538;DHT22;3302;52.508;13.454;2023-03-23T11:10:54;13.60;96.20
6538;DHT22;3302;52.508;13.454;2023-03-23T11:13:22;13.60;96.10
6538;DHT22;3302;52.508;13.454;2023-03-23T11:15:50;13.70;95.90
6538;DHT22;3302;52.508;13.454;2023-03-23T11:18:38;13.70;95.90
6538;DHT22;3302;52.508;13.454;2023-03-23T11:21:06;13.70;95.60
6538;DHT22;3302;52.508;13.454;2023-03-23T11:23:33;13.70;95.30
6538;DHT22;3302;52.508;13.454;2023-03-23T11:28:43;13.80;95.30
6538;DHT22;3302;52.508;13.454;2023-03-23T11:31:10;13.80;95.10
6538;DHT22;3302;52.508;13.454;2023-03-23T11:33:53;13.80;94.80
6538;DHT22;3302;52.508;13.454;2023-03-23T11:36:20;13.90;94.80
6538;DHT22;3302;52.508;13.454;2023-03-23T11:38:53;13.90;94.50
6538;DHT22;3302;52.508;13.454;2023-03-23T11:41:22;13.90;94.40
6538;DHT22;3302;52.508;13.454;2023-03-23T11:43:51;14.00;94.50
6538;DHT22;3302;52.508;13.454;2023-03-23T11:46:35;14.00;94.60
6538;DHT22;3302;52.508;13.454;2023-03-23T11:49:12;14.10;94.30
6538;DHT22;3302;52.508;13.454;2023-03-23T11:51:48;14.10;93.90
6538;DHT22;3302;52.508;13.454;2023-03-23T11:54:33;14.20;93.50
6538;DHT22;3302;52.508;13.454;2023-03-23T11:56:59;14.20;93.40
6538;DHT22;3302;52.508;13.454;2023-03-23T11:59:29;14.30;93.60
6538;DHT22;3302;52.508;13.454;2023-03-23T12:02:30;14.30;92.90
6538;DHT22;3302;52.508;13.454;2023-03-23T12:11:07;14.40;92.50
6538;DHT22;3302;52.508;13.454;2023-03-23T12:13:52;14.40;92.30
6538;DHT22;3302;52.508;13.454;2023-03-23T12:19:36;14.50;92.10
6538;DHT22;3302;52.508;13.454;2023-03-23T12:43:31;14.60;91.10
6538;DHT22;3302;52.508;13.454;2023-03-23T12:48:46;14.50;90.30
6538;DHT22;3302;52.508;13.454;2023-03-23T12:51:16;14.60;90.50
6538;DHT22;3302;52.508;13.454;2023-03-23T12:53:45;14.70;90.20
6538;DHT22;3302;52.508;13.454;2023-03-23T12:56:33;14.60;90.20
6538;DHT22;3302;52.508;13.454;2023-03-23T12:59:09;14.70;90.40
6538;DHT22;3302;52.508;13.454;2023-03-23T13:01:41;14.80;90.20
6538;DHT22;3302;52.508;13.454;2023-03-23T13:04:21;14.80;89.20
6538;DHT22;3302;52.508;13.454;2023-03-23T13:06:48;14.90;90.00
6538;DHT22;3302;52.508;13.454;2023-03-23T13:12:07;15.00;87.70
6538;DHT22;3302;52.508;13.454;2023-03-23T13:15:13;15.10;87.80
6538;DHT22;3302;52.508;13.454;2023-03-23T13:17:52;15.20;87.70
6538;DHT22;3302;52.508;13.454;2023-03-23T13:25:52;15.30;86.10
6538;DHT22;3302;52.508;13.454;2023-03-23T13:28:20;15.30;86.50
6538;DHT22;3302;52.508;13.454;2023-03-23T13:31:15;15.30;85.70
6538;DHT22;3302;52.508;13.454;2023-03-23T13:33:49;15.30;85.00
6538;DHT22;3302;52.508;13.454;2023-03-23T13:36:18;15.30;85.30
6538;DHT22;3302;52.508;13.454;2023-03-23T13:38:47;15.40;83.60
6538;DHT22;3302;52.508;13.454;2023-03-23T13:41:15;15.50;83.60
6538;DHT22;3302;52.508;13.454;2023-03-23T13:43:43;15.60;84.10
6538;DHT22;3302;52.508;13.454;2023-03-23T13:48:49;15.70;80.10
6538;DHT22;3302;52.508;13.454;2023-03-23T13:54:39;15.80;80.60
6538;DHT22;3302;52.508;13.454;2023-03-23T13:57:26;16.00;79.80
6538;DHT22;3302;52.508;13.454;2023-03-23T13:59:58;15.90;76.40
6538;DHT22;3302;52.508;13.454;2023-03-23T14:02:37;15.70;76.10
6538;DHT22;3302;52.508;13.454;2023-03-23T14:05:32;15.70;76.60
6538;DHT22;3302;52.508;13.454;2023-03-23T14:08:44;15.80;76.00
6538;DHT22;3302;52.508;13.454;2023-03-23T14:10:50;15.80;75.30
6538;DHT22;3302;52.508;13.454;2023-03-23T14:13:24;15.80;74.90
6538;DHT22;3302;52.508;13.454;2023-03-23T14:15:58;15.90;75.40
6538;DHT22;3302;52.508;13.454;2023-03-23T14:18:36;16.10;75.20
6538;DHT22;3302;52.508;13.454;2023-03-23T14:21:04;16.20;71.30
6538;DHT22;3302;52.508;13.454;2023-03-23T14:23:33;15.90;71.60
6538;DHT22;3302;52.508;13.454;2023-03-23T14:26:03;16.00;72.20
6538;DHT22;3302;52.508;13.454;2023-03-23T14:28:42;16.20;72.00
6538;DHT22;3302;52.508;13.454;2023-03-23T14:31:23;16.20;72.10
6538;DHT22;3302;52.508;13.454;2023-03-23T14:33:52;16.30;72.20
6538;DHT22;3302;52.508;13.454;2023-03-23T14:36:26;16.10;72.50
6538;DHT22;3302;52.508;13.454;2023-03-23T14:39:04;16.00;72.90
6538;DHT22;3302;52.508;13.454;2023-03-23T14:41:32;15.70;73.00
6538;DHT22;3302;52.508;13.454;2023-03-23T14:44:01;15.70;74.10
6538;DHT22;3302;52.508;13.454;2023-03-23T14:46:28;15.70;74.70
6538;DHT22;3302;52.508;13.454;2023-03-23T14:48:55;15.60;75.20
6538;DHT22;3302;52.508;13.454;2023-03-23T14:51:22;15.50;75.90
6538;DHT22;3302;52.508;13.454;2023-03-23T14:53:47;15.50;75.90
6538;DHT22;3302;52.508;13.454;2023-03-23T14:56:17;15.50;74.80
6538;DHT22;3302;52.508;13.454;2023-03-23T14:58:48;15.50;75.90
6538;DHT22;3302;52.508;13.454;2023-03-23T15:01:28;15.40;77.20
6538;DHT22;3302;52.508;13.454;2023-03-23T15:06:26;15.30;79.10
6538;DHT22;3302;52.508;13.454;2023-03-23T15:08:54;15.40;79.90
6538;DHT22;3302;52.508;13.454;2023-03-23T15:11:34;15.60;78.60
6538;DHT22;3302;52.508;13.454;2023-03-23T15:14:17;15.80;78.70
6538;DHT22;3302;52.508;13.454;2023-03-23T15:16:46;15.80;78.40
6538;DHT22;3302;52.508;13.454;2023-03-23T15:19:21;16.00;78.40
6538;DHT22;3302;52.508;13.454;2023-03-23T15:21:57;16.00;77.80
6538;DHT22;3302;52.508;13.454;2023-03-23T15:24:33;16.10;78.10
6538;DHT22;3302;52.508;13.454;2023-03-23T15:27:32;16.10;78.00
6538;DHT22;3302;52.508;13.454;2023-03-23T15:30:10;16.20;77.50
6538;DHT22;3302;52.508;13.454;2023-03-23T15:32:42;16.30;76.30
6538;DHT22;3302;52.508;13.454;2023-03-23T15:35:21;16.10;76.80
6538;DHT22;3302;52.508;13.454;2023-03-23T15:37:51;16.20;76.40
6538;DHT22;3302;52.508;13.454;2023-03-23T15:40:23;16.40;76.10
6538;DHT22;3302;52.508;13.454;2023-03-23T15:42:50;16.40;74.20
6538;DHT22;3302;52.508;13.454;2023-03-23T15:45:30;16.40;73.10
6538;DHT22;3302;52.508;13.454;2023-03-23T15:48:04;16.20;72.10
6538;DHT22;3302;52.508;13.454;2023-03-23T15:52:56;16.30;69.70
6538;DHT22;3302;52.508;13.454;2023-03-23T15:55:27;16.20;69.50
6538;DHT22;3302;52.508;13.454;2023-03-23T15:57:56;16.10;69.30
6538;DHT22;3302;52.508;13.454;2023-03-23T16:00:26;16.00;70.20
6538;DHT22;3302;52.508;13.454;2023-03-23T16:02:59;16.00;69.60
6538;DHT22;3302;52.508;13.454;2023-03-23T16:05:26;16.00;70.00
6538;DHT22;3302;52.508;13.454;2023-03-23T16:07:51;15.90;70.40
6538;DHT22;3302;52.508;13.454;2023-03-23T16:10:20;15.90;71.00
6538;DHT22;3302;52.508;13.454;2023-03-23T16:12:46;15.80;71.00
6538;DHT22;3302;52.508;13.454;2023-03-23T16:15:13;15.90;71.40
6538;DHT22;3302;52.508;13.454;2023-03-23T16:17:40;15.80;70.10
6538;DHT22;3302;52.508;13.454;2023-03-23T16:20:24;15.80;68.50
6538;DHT22;3302;52.508;13.454;2023-03-23T16:22:51;15.80;68.10
6538;DHT22;3302;52.508;13.454;2023-03-23T16:25:18;15.80;67.80
6538;DHT22;3302;52.508;13.454;2023-03-23T16:27:44;15.80;67.30
6538;DHT22;3302;52.508;13.454;2023-03-23T16:32:44;15.80;67.40
6538;DHT22;3302;52.508;13.454;2023-03-23T16:35:12;15.80;67.60
6538;DHT22;3302;52.508;13.454;2023-03-23T16:37:42;15.70;68.00
6538;DHT22;3302;52.508;13.454;2023-03-23T16:40:11;15.70;68.40
6538;DHT22;3302;52.508;13.454;2023-03-23T16:42:37;15.60;69.00
6538;DHT22;3302;52.508;13.454;2023-03-23T16:45:03;15.60;69.30
6538;DHT22;3302;52.508;13.454;2023-03-23T16:47:29;15.60;69.10
6538;DHT22;3302;52.508;13.454;2023-03-23T16:49:55;15.60;69.60
6538;DHT22;3302;52.508;13.454;2023-03-23T16:52:21;15.60;69.60
6538;DHT22;3302;52.508;13.454;2023-03-23T16:54:47;15.60;70.30
6538;DHT22;3302;52.508;13.454;2023-03-23T16:57:13;15.60;70.10
6538;DHT22;3302;52.508;13.454;2023-03-23T16:59:39;15.20;75.20
6538;DHT22;3302;52.508;13.454;2023-03-23T17:02:05;15.10;77.00
6538;DHT22;3302;52.508;13.454;2023-03-23T17:04:31;14.80;79.40
6538;DHT22;3302;52.508;13.454;2023-03-23T17:06:58;14.60;82.00
6538;DHT22;3302;52.508;13.454;2023-03-23T17:09:25;14.70;82.30
6538;DHT22;3302;52.508;13.454;2023-03-23T17:11:52;14.60;83.60
6538;DHT22;3302;52.508;13.454;2023-03-23T17:14:18;14.40;84.50
6538;DHT22;3302;52.508;13.454;2023-03-23T17:16:45;14.20;85.90
6538;DHT22;3302;52.508;13.454;2023-03-23T17:19:11;14.20;86.70
6538;DHT22;3302;52.508;13.454;2023-03-23T17:21:39;14.00;87.60
6538;DHT22;3302;52.508;13.454;2023-03-23T17:24:05;14.00;87.90
6538;DHT22;3302;52.508;13.454;2023-03-23T17:26:32;14.00;88.80
6538;DHT22;3302;52.508;13.454;2023-03-23T17:28:58;14.00;88.70
6538;DHT22;3302;52.508;13.454;2023-03-23T17:31:24;14.00;89.60
6538;DHT22;3302;52.508;13.454;2023-03-23T17:33:50;13.90;90.00
6538;DHT22;3302;52.508;13.454;2023-03-23T17:36:17;13.80;90.20
6538;DHT22;3302;52.508;13.454;2023-03-23T17:38:43;13.80;90.50
6538;DHT22;3302;52.508;13.454;2023-03-23T17:41:09;13.80;90.50
6538;DHT22;3302;52.508;13.454;2023-03-23T17:43:37;13.80;90.70
6538;DHT22;3302;52.508;13.454;2023-03-23T17:46:06;13.80;91.00
6538;DHT22;3302;52.508;13.454;2023-03-23T17:48:32;13.40;94.30
6538;DHT22;3302;52.508;13.454;2023-03-23T17:50:58;13.20;96.40
6538;DHT22;3302;52.508;13.454;2023-03-23T17:53:28;13.10;95.60
6538;DHT22;3302;52.508;13.454;2023-03-23T17:55:55;13.20;95.60
6538;DHT22;3302;52.508;13.454;2023-03-23T17:58:21;13.10;95.30